Time;durP1;ratioP1;P1;durP2;ratioP2;P2;SDS_P1;SDS_P2;PMS_P1;PMS_P2;Temp;Humidity;BMP_temperature;BMP_pressure;BME280_temperature;BME280_humidity;BME280_pressure;Samples;Min_cycle;Max_cycle;Signal;HPM_P1;HPM_P2
2024/01/09 00:00:41;;;;;;;10.40;8.65;;;;;;;-0.89;100.00;98392.41;1220060;75;2919153;-66
2024/01/09 00:03:14;;;;;;;10.65;8.80;;;;;;;-0.86;100.00;98394.31;1223295;75;2923435;-65
2024/01/09 00:05:47;;;;;;;11.10;7.90;;;;;;;-0.76;100.00;98394.72;1225039;75;2912041;-64
2024/01/09 00:08:19;;;;;;;10.40;8.15;;;;;;;-0.75;100.00;98393.56;1224779;75;2917999;-68
2024/01/09 00:10:52;;;;;;;11.55;9.70;;;;;;;-0.92;100.00;98397.75;1224726;75;2924351;-65
2024/01/09 00:13:28;;;;;;;13.75;10.35;;;;;;;-1.12;100.00;98402.69;1223729;75;2917734;-67
2024/01/09 00:16:00;;;;;;;12.55;10.40;;;;;;;-1.10;100.00;98406.53;1224372;75;2916441;-65
2024/01/09 00:18:33;;;;;;;15.60;11.05;;;;;;;-1.31;100.00;98409.13;1224710;83;2929793;-65
2024/01/09 00:21:07;;;;;;;14.20;11.45;;;;;;;-1.17;100.00;98401.13;1225141;75;2921548;-65
2024/01/09 00:23:39;;;;;;;13.45;9.75;;;;;;;-1.11;100.00;98406.91;1224401;75;2919698;-65
2024/01/09 00:26:12;;;;;;;14.30;11.70;;;;;;;-1.32;100.00;98411.06;1224787;75;2922791;-66
2024/01/09 00:28:47;;;;;;;12.65;9.90;;;;;;;-1.18;100.00;98401.50;1224886;75;2912469;-63
2024/01/09 00:31:20;;;;;;;14.10;11.35;;;;;;;-1.31;100.00;98409.13;1224490;75;2942104;-66
2024/01/09 00:33:53;;;;;;;14.65;11.45;;;;;;;-1.26;100.00;98406.09;1224922;75;2916776;-64
2024/01/09 00:36:26;;;;;;;13.15;10.50;;;;;;;-1.23;100.00;98407.25;1225346;75;2914303;-68
2024/01/09 00:38:59;;;;;;;16.90;13.00;;;;;;;-1.35;100.00;98416.41;1225037;75;2916671;-65
2024/01/09 00:41:32;;;;;;;16.10;12.20;;;;;;;-1.36;100.00;98423.69;1224872;75;2929463;-67
2024/01/09 00:44:08;;;;;;;16.60;12.35;;;;;;;-1.29;100.00;98422.97;1225024;75;2913479;-66
2024/01/09 00:46:41;;;;;;;15.45;12.30;;;;;;;-1.40;100.00;98425.59;1224928;75;2923518;-67
2024/01/09 00:49:13;;;;;;;15.60;12.40;;;;;;;-1.38;100.00;98423.28;1225391;75;2917659;-66
2024/01/09 00:51:46;;;;;;;16.05;12.50;;;;;;;-1.39;100.00;98434.44;1225670;75;2919581;-66
2024/01/09 00:54:19;;;;;;;16.75;12.25;;;;;;;-1.38;100.00;98420.63;1224817;75;2916230;-64
2024/01/09 00:56:52;;;;;;;17.10;12.50;;;;;;;-1.43;100.00;98428.28;1225330;75;2927271;-66
2024/01/09 00:59:27;;;;;;;16.40;12.90;;;;;;;-1.33;100.00;98431.00;1225299;75;2933520;-66
2024/01/09 01:02:00;;;;;;;16.20;12.35;;;;;;;-1.22;100.00;98443.72;1225418;75;2928147;-66
2024/01/09 01:04:33;;;;;;;14.95;12.35;;;;;;;-1.42;100.00;98443.22;1225016;75;2911625;-66
2024/01/09 01:07:06;;;;;;;19.90;13.20;;;;;;;-1.52;100.00;98452.75;1225908;75;2913621;-63
2024/01/09 01:09:39;;;;;;;17.30;12.15;;;;;;;-1.41;100.00;98455.53;1223571;75;2916682;-66
2024/01/09 01:12:12;;;;;;;17.00;12.45;;;;;;;-1.53;100.00;98459.28;1224216;75;2916048;-66
2024/01/09 01:14:47;;;;;;;15.55;11.95;;;;;;;-1.29;100.00;98465.94;1224721;75;2927939;-65
2024/01/09 01:17:20;;;;;;;13.85;11.10;;;;;;;-1.26;100.00;98467.88;1225318;75;2929820;-66
2024/01/09 01:19:53;;;;;;;15.10;11.55;;;;;;;-1.35;100.00;98475.50;1224449;75;2921402;-66
2024/01/09 01:22:26;;;;;;;14.00;11.30;;;;;;;-1.35;100.00;98470.13;1224970;75;2921270;-64
2024/01/09 01:24:58;;;;;;;15.60;12.05;;;;;;;-1.42;100.00;98478.13;1224483;75;2931635;-64
2024/01/09 01:27:31;;;;;;;15.15;11.60;;;;;;;-1.35;100.00;98481.66;1224685;75;2932714;-67
2024/01/09 01:30:08;;;;;;;13.10;11.05;;;;;;;-1.10;100.00;98489.06;1225396;75;2926333;-64
2024/01/09 01:32:42;;;;;;;12.95;10.40;;;;;;;-1.06;100.00;98484.47;1224983;75;2916753;-65
2024/01/09 01:35:15;;;;;;;13.85;10.70;;;;;;;-1.24;100.00;98489.00;1225517;75;2920142;-66
2024/01/09 01:37:48;;;;;;;14.25;11.00;;;;;;;-1.16;100.00;98488.63;1224341;75;2928209;-65
2024/01/09 01:40:21;;;;;;;14.80;10.55;;;;;;;-1.28;100.00;98491.66;1224680;67;2911681;-66
2024/01/09 01:42:53;;;;;;;17.35;13.50;;;;;;;-1.42;100.00;98486.97;1224439;75;2924719;-65
2024/01/09 01:45:29;;;;;;;18.90;13.80;;;;;;;-1.44;100.00;98489.28;1225433;75;2920128;-66
2024/01/09 01:48:03;;;;;;;16.20;12.65;;;;;;;-1.40;100.00;98490.03;1224199;75;2923858;-67
2024/01/09 01:50:37;;;;;;;15.10;11.55;;;;;;;-1.23;100.00;98490.53;1225120;75;2918812;-67
2024/01/09 01:53:11;;;;;;;15.05;10.75;;;;;;;-1.16;100.00;98479.81;1224530;75;2916910;-66
2024/01/09 01:55:44;;;;;;;11.85;9.50;;;;;;;-1.12;100.00;98486.75;1224503;75;2915906;-67
2024/01/09 01:58:17;;;;;;;11.35;9.20;;;;;;;-0.95;100.00;98493.34;1224636;75;2916759;-67
2024/01/09 02:00:53;;;;;;;11.65;9.10;;;;;;;-1.14;100.00;98490.97;1224735;75;2917319;-66
2024/01/09 02:03:26;;;;;;;11.60;9.05;;;;;;;-1.11;100.00;98484.81;1224188;75;2914002;-64
2024/01/09 02:06:00;;;;;;;11.15;9.25;;;;;;;-1.02;100.00;98500.63;1225231;75;2920128;-65
2024/01/09 02:08:35;;;;;;;10.75;8.65;;;;;;;-0.91;100.00;98496.06;1224113;75;2918255;-65
2024/01/09 02:11:08;;;;;;;9.85;7.90;;;;;;;-0.92;100.00;98497.19;1224425;75;2928524;-67
2024/01/09 02:13:41;;;;;;;12.35;9.30;;;;;;;-1.10;100.00;98505.19;1224863;75;2918520;-65
2024/01/09 02:16:16;;;;;;;12.20;9.20;;;;;;;-0.97;100.00;98498.31;1224843;75;2920377;-65
2024/01/09 02:18:49;;;;;;;12.70;9.60;;;;;;;-0.98;100.00;98499.47;1224387;75;2923715;-65
2024/01/09 02:21:22;;;;;;;14.65;10.45;;;;;;;-1.25;100.00;98503.56;1223925;75;2926199;-64
2024/01/09 02:23:55;;;;;;;14.30;10.20;;;;;;;-1.19;100.00;98497.44;1225160;75;2920363;-65
2024/01/09 02:26:34;;;;;;;12.55;9.80;;;;;;;-1.14;100.00;98504.38;1223174;75;2935356;-65
2024/01/09 02:29:19;;;;;;;11.60;8.70;;;;;;;-0.95;100.00;98509.47;1225020;75;2914165;-64
2024/01/09 02:31:55;;;;;;;10.60;8.65;;;;;;;-0.95;100.00;98498.72;1224005;75;2921137;-67
2024/01/09 02:34:29;;;;;;;8.85;6.90;;;;;;;-0.73;98.12;98501.50;1224520;75;2919708;-66
2024/01/09 02:37:02;;;;;;;7.95;6.80;;;;;;;-0.77;97.85;98501.50;1223177;75;2923646;-65
2024/01/09 02:39:35;;;;;;;8.35;6.50;;;;;;;-0.89;97.07;98496.44;1225720;75;2920275;-65
2024/01/09 02:42:08;;;;;;;7.85;6.55;;;;;;;-0.89;97.38;98501.81;1224303;75;2917072;-65
2024/01/09 02:44:41;;;;;;;8.90;5.60;;;;;;;-0.76;96.97;98496.88;1224708;75;2921198;-64
2024/01/09 02:47:17;;;;;;;6.95;5.65;;;;;;;-0.82;95.26;98501.06;1224833;75;2921506;-65
2024/01/09 02:49:50;;;;;;;7.20;5.55;;;;;;;-0.97;97.95;98502.94;1224743;75;2925179;-66
2024/01/09 02:52:23;;;;;;;7.50;5.40;;;;;;;-0.86;97.56;98501.06;1224170;75;2922961;-67
2024/01/09 02:54:56;;;;;;;7.75;5.75;;;;;;;-0.95;97.37;98496.03;1224462;75;2919742;-64
2024/01/09 02:57:29;;;;;;;7.85;6.20;;;;;;;-1.04;98.28;98492.91;1223975;75;2916517;-65
2024/01/09 03:00:02;;;;;;;7.25;5.65;;;;;;;-1.07;97.90;98502.50;1224885;75;2927655;-62
2024/01/09 03:02:38;;;;;;;8.75;6.65;;;;;;;-1.03;100.00;98499.84;1225351;75;2919421;-64
2024/01/09 03:05:11;;;;;;;9.80;7.35;;;;;;;-1.07;100.00;98501.75;1224940;75;2916893;-63
2024/01/09 03:07:44;;;;;;;8.15;6.75;;;;;;;-0.93;99.73;98509.09;1224240;75;2922459;-68
2024/01/09 03:10:17;;;;;;;11.60;7.55;;;;;;;-1.13;100.00;98509.41;1224917;75;2918011;-65
2024/01/09 03:12:50;;;;;;;11.10;8.45;;;;;;;-1.31;100.00;98505.84;1224581;75;2922902;-65
2024/01/09 03:15:23;;;;;;;11.85;9.25;;;;;;;-1.38;100.00;98500.41;1224570;75;2932608;-66
2024/01/09 03:17:58;;;;;;;13.15;10.10;;;;;;;-1.29;100.00;98501.63;1224931;75;2913539;-65
2024/01/09 03:20:31;;;;;;;11.25;8.70;;;;;;;-1.39;100.00;98504.25;1224785;75;2914516;-67
2024/01/09 03:23:04;;;;;;;12.10;9.45;;;;;;;-1.27;100.00;98509.31;1224739;75;2920463;-67
2024/01/09 03:25:37;;;;;;;12.85;9.55;;;;;;;-1.33;100.00;98508.13;1226047;75;2914620;-66
2024/01/09 03:28:10;;;;;;;12.20;10.05;;;;;;;-1.54;100.00;98496.13;1225283;75;2922416;-66
2024/01/09 03:30:42;;;;;;;14.80;11.30;;;;;;;-1.52;100.00;98507.22;1223268;75;2919443;-65
2024/01/09 03:33:18;;;;;;;15.30;12.05;;;;;;;-1.59;100.00;98507.22;1224665;75;2935830;-65
2024/01/09 03:35:51;;;;;;;15.85;11.65;;;;;;;-1.44;100.00;98505.38;1224143;75;2915940;-66
2024/01/09 03:38:23;;;;;;;13.95;10.55;;;;;;;-1.43;100.00;98519.56;1223864;75;2919662;-65
2024/01/09 03:40:56;;;;;;;12.80;9.95;;;;;;;-1.44;100.00;98508.06;1225066;75;2919289;-65
2024/01/09 03:43:29;;;;;;;14.45;10.65;;;;;;;-1.45;100.00;98511.88;1223902;67;2913727;-66
2024/01/09 03:46:02;;;;;;;13.50;10.75;;;;;;;-1.52;100.00;98517.19;1222884;75;2926063;-66
2024/01/09 03:48:37;;;;;;;15.30;11.30;;;;;;;-1.62;100.00;98515.97;1224472;75;2922372;-66
2024/01/09 03:51:10;;;;;;;15.25;11.70;;;;;;;-1.44;100.00;98512.66;1224868;75;2929313;-65
2024/01/09 03:53:43;;;;;;;15.15;11.25;;;;;;;-1.47;100.00;98514.16;1224620;75;2922490;-66
2024/01/09 03:56:16;;;;;;;16.75;12.40;;;;;;;-1.57;100.00;98528.28;1225853;75;2918944;-66
2024/01/09 03:58:49;;;;;;;17.25;12.45;;;;;;;-1.55;100.00;98528.69;1225142;75;2912893;-65
2024/01/09 04:01:22;;;;;;;15.10;11.40;;;;;;;-1.45;100.00;98527.22;1225158;75;2918615;-66
2024/01/09 04:03:57;;;;;;;15.05;11.55;;;;;;;-1.55;100.00;98520.63;1223880;75;2928996;-65
2024/01/09 04:06:30;;;;;;;12.30;9.60;;;;;;;-1.25;100.00;98527.72;1222597;75;2957418;-65
2024/01/09 04:09:03;;;;;;;12.00;9.45;;;;;;;-1.30;100.00;98534.22;1224927;75;2926108;-64
2024/01/09 04:11:35;;;;;;;14.60;12.30;;;;;;;-1.43;100.00;98533.00;1225802;75;2927582;-65
2024/01/09 04:14:08;;;;;;;16.05;12.00;;;;;;;-1.64;100.00;98539.75;1223985;75;2927563;-66
2024/01/09 04:16:41;;;;;;;16.75;12.95;;;;;;;-1.47;100.00;98545.63;1223761;75;2915542;-68
2024/01/09 04:19:17;;;;;;;12.95;9.90;;;;;;;-1.37;100.00;98544.91;1224180;75;2925400;-66
2024/01/09 04:21:49;;;;;;;12.25;9.95;;;;;;;-1.23;100.00;98550.38;1224402;75;2919265;-65
2024/01/09 04:24:22;;;;;;;12.35;9.20;;;;;;;-1.40;100.00;98554.50;1224351;75;2923506;-65
2024/01/09 04:26:55;;;;;;;13.15;10.65;;;;;;;-1.36;100.00;98559.91;1225413;75;2918940;-66
2024/01/09 04:29:28;;;;;;;14.15;10.95;;;;;;;-1.34;100.00;98555.69;1224586;75;2912838;-66
2024/01/09 04:32:01;;;;;;;10.75;8.90;;;;;;;-1.06;100.00;98557.00;1222939;75;2914633;-65
2024/01/09 04:34:39;;;;;;;12.85;9.50;;;;;;;-1.14;100.00;98566.19;1224659;75;2917401;-66
2024/01/09 04:37:12;;;;;;;12.10;9.05;;;;;;;-1.23;100.00;98568.41;1223303;75;2919012;-67
2024/01/09 04:39:44;;;;;;;10.30;8.10;;;;;;;-1.16;100.00;98579.97;1223786;75;2928462;-68
2024/01/09 04:42:18;;;;;;;11.60;8.60;;;;;;;-1.04;100.00;98576.22;1225926;75;2926495;-65
2024/01/09 04:44:51;;;;;;;9.30;7.35;;;;;;;-1.17;98.56;98575.75;1224961;75;2914161;-64
2024/01/09 04:47:24;;;;;;;10.85;8.25;;;;;;;-1.29;100.00;98581.44;1224502;75;2919926;-66
2024/01/09 04:50:00;;;;;;;11.35;9.05;;;;;;;-1.21;100.00;98579.56;1224293;75;2918249;-68
2024/01/09 04:52:32;;;;;;;12.90;9.90;;;;;;;-1.19;100.00;98591.47;1224373;75;2916948;-66
2024/01/09 04:55:05;;;;;;;11.25;8.60;;;;;;;-1.00;99.94;98592.38;1226131;75;2912818;-66
2024/01/09 04:57:38;;;;;;;11.60;8.15;;;;;;;-0.89;99.58;98595.88;1224232;75;2928593;-65
2024/01/09 05:00:13;;;;;;;8.65;6.75;;;;;;;-0.82;98.49;98592.47;1224869;75;2922071;-66
2024/01/09 05:02:46;;;;;;;7.60;6.20;;;;;;;-0.77;98.46;98600.97;1224963;75;2914899;-67
2024/01/09 05:05:22;;;;;;;7.55;5.25;;;;;;;-0.81;98.67;98599.41;1224870;75;2917115;-65
2024/01/09 05:07:55;;;;;;;6.10;4.85;;;;;;;-0.79;98.58;98602.50;1224781;75;2915658;-65
2024/01/09 05:10:30;;;;;;;6.45;5.15;;;;;;;-0.76;99.75;98605.19;1225105;75;2923265;-65
2024/01/09 05:13:03;;;;;;;5.85;4.70;;;;;;;-0.77;96.92;98605.53;1223351;67;2932464;-67
2024/01/09 05:15:36;;;;;;;9.40;6.85;;;;;;;-1.05;99.13;98606.16;1223776;75;2924287;-66
2024/01/09 05:18:10;;;;;;;8.40;6.80;;;;;;;-1.00;100.00;98608.50;1223462;75;2914992;-66
2024/01/09 05:20:45;;;;;;;10.35;7.90;;;;;;;-1.31;100.00;98608.66;1220181;75;3043809;-66
2024/01/09 05:23:18;;;;;;;15.90;10.85;;;;;;;-1.44;100.00;98612.00;1223310;75;2923672;-65
2024/01/09 05:25:51;;;;;;;14.30;10.70;;;;;;;-1.24;100.00;98612.56;1223287;75;2935443;-66
2024/01/09 05:28:24;;;;;;;12.20;9.55;;;;;;;-1.24;100.00;98616.00;1223391;75;2925683;-66
2024/01/09 05:30:56;;;;;;;11.95;8.95;;;;;;;-1.27;100.00;98616.75;1224168;75;2920511;-64
2024/01/09 05:33:29;;;;;;;12.40;9.80;;;;;;;-1.29;100.00;98619.81;1224674;75;2922741;-65
2024/01/09 05:36:06;;;;;;;12.70;9.60;;;;;;;-1.17;100.00;98615.31;1224003;75;2928780;-67
2024/01/09 05:38:39;;;;;;;11.50;9.75;;;;;;;-1.21;100.00;98620.63;1196804;75;5039995;-67
2024/01/09 05:41:11;;;;;;;11.55;8.65;;;;;;;-0.90;100.00;98634.66;1223421;75;2930246;-63
2024/01/09 05:43:44;;;;;;;11.10;8.15;;;;;;;-0.79;100.00;98635.50;1223488;75;2926681;-67
2024/01/09 05:46:17;;;;;;;10.95;9.05;;;;;;;-1.18;100.00;98640.59;1223209;75;2915542;-63
2024/01/09 05:48:50;;;;;;;11.50;8.45;;;;;;;-1.01;100.00;98640.00;1224124;75;2930832;-67
2024/01/09 05:51:26;;;;;;;15.20;9.25;;;;;;;-1.22;100.00;98637.91;1222759;75;2925286;-64
2024/01/09 05:53:59;;;;;;;13.00;9.95;;;;;;;-1.01;100.00;98636.50;1224139;75;2921723;-66
2024/01/09 05:56:31;;;;;;;9.95;7.65;;;;;;;-0.92;100.00;98650.41;1223886;75;2939578;-65
2024/01/09 05:59:04;;;;;;;9.25;7.30;;;;;;;-0.82;100.00;98649.69;1224606;75;2922635;-65
2024/01/09 06:01:37;;;;;;;8.00;6.55;;;;;;;-0.80;100.00;98644.72;1225071;83;2917526;-65
2024/01/09 06:04:10;;;;;;;8.75;6.55;;;;;;;-0.77;100.00;98653.94;1223705;75;2932519;-66
2024/01/09 06:06:45;;;;;;;6.75;5.25;;;;;;;-0.70;100.00;98656.66;1224479;75;2921872;-65
2024/01/09 06:09:18;;;;;;;8.40;5.25;;;;;;;-0.70;100.00;98659.34;1222955;75;2921930;-66
2024/01/09 06:11:51;;;;;;;5.80;4.40;;;;;;;-0.70;100.00;98653.97;1223922;75;2923313;-68
2024/01/09 06:14:24;;;;;;;6.45;5.05;;;;;;;-0.67;100.00;98651.31;1223860;75;2921701;-66
2024/01/09 06:16:57;;;;;;;7.35;6.05;;;;;;;-0.95;100.00;98651.91;1224264;75;2923034;-65
2024/01/09 06:19:30;;;;;;;9.40;6.95;;;;;;;-1.04;100.00;98658.75;1223377;75;2930025;-65
2024/01/09 06:22:05;;;;;;;10.45;7.80;;;;;;;-1.12;100.00;98656.03;1222469;75;2918965;-66
2024/01/09 06:24:38;;;;;;;11.55;9.15;;;;;;;-1.19;100.00;98653.28;1223289;75;2920339;-64
2024/01/09 06:27:11;;;;;;;12.95;10.35;;;;;;;-1.27;100.00;98657.06;1223992;75;2924514;-67
2024/01/09 06:29:44;;;;;;;14.80;11.55;;;;;;;-1.32;100.00;98652.81;1223235;75;2916162;-65
2024/01/09 06:32:17;;;;;;;14.90;11.55;;;;;;;-1.37;100.00;98655.81;1222824;75;2925910;-63
2024/01/09 06:34:50;;;;;;;15.40;11.40;;;;;;;-1.20;100.00;98661.69;1223328;75;2930208;-66
2024/01/09 06:37:25;;;;;;;14.00;11.00;;;;;;;-1.37;100.00;98669.25;1222726;75;2922483;-67
2024/01/09 06:39:58;;;;;;;16.80;13.55;;;;;;;-1.47;100.00;98667.22;1223429;75;2927109;-64
2024/01/09 06:42:31;;;;;;;14.80;12.40;;;;;;;-1.35;100.00;98669.66;1222820;67;2923759;-64
2024/01/09 06:45:04;;;;;;;16.90;12.80;;;;;;;-1.44;100.00;98666.50;1223188;75;2935509;-66
2024/01/09 06:47:37;;;;;;;15.90;13.20;;;;;;;-1.58;100.00;98674.44;1223141;75;2920901;-66
2024/01/09 06:50:11;;;;;;;20.55;13.45;;;;;;;-1.25;100.00;98678.97;1223391;75;2937841;-63
2024/01/09 06:52:47;;;;;;;16.50;12.90;;;;;;;-1.15;100.00;98675.56;1223321;75;2929538;-66
2024/01/09 06:55:20;;;;;;;14.80;11.50;;;;;;;-1.33;100.00;98683.47;1222903;75;2935787;-66
2024/01/09 06:57:53;;;;;;;14.40;11.60;;;;;;;-1.21;100.00;98690.47;1223749;75;2933025;-64
2024/01/09 07:00:26;;;;;;;14.35;11.30;;;;;;;-1.14;100.00;98695.16;1223675;75;2928321;-65
2024/01/09 07:02:59;;;;;;;15.55;11.20;;;;;;;-1.18;100.00;98705.09;1219790;75;2932060;-65
2024/01/09 07:05:35;;;;;;;17.90;13.70;;;;;;;-1.15;100.00;98701.69;1183383;75;5895994;-65
2024/01/09 07:08:11;;;;;;;21.55;15.65;;;;;;;-1.41;100.00;98706.03;1222565;75;2874669;-64
2024/01/09 07:10:43;;;;;;;26.15;19.30;;;;;;;-1.59;100.00;98711.25;1223720;75;2932818;-64
2024/01/09 07:13:16;;;;;;;19.95;15.90;;;;;;;-1.48;100.00;98707.91;1223962;75;2926425;-67
2024/01/09 07:15:49;;;;;;;20.35;15.95;;;;;;;-1.26;100.00;98716.91;1223776;75;2930133;-66
2024/01/09 07:18:24;;;;;;;17.10;13.90;;;;;;;-1.39;100.00;98711.06;1223287;75;2922194;-65
2024/01/09 07:20:57;;;;;;;19.30;13.70;;;;;;;-1.13;100.00;98718.97;1223412;75;2921581;-65
2024/01/09 07:23:32;;;;;;;18.30;13.85;;;;;;;-1.27;100.00;98728.78;1223893;75;2929177;-64
2024/01/09 07:26:05;;;;;;;16.75;12.95;;;;;;;-1.07;100.00;98747.03;1224219;75;2944350;-67
2024/01/09 07:28:38;;;;;;;18.35;12.85;;;;;;;-1.19;100.00;98743.84;1223492;75;2932106;-66
2024/01/09 07:31:12;;;;;;;20.80;16.35;;;;;;;-1.44;100.00;98743.59;1224115;75;2928472;-65
2024/01/09 07:33:44;;;;;;;19.80;14.45;;;;;;;-1.22;100.00;98749.97;1223880;75;2922434;-66
2024/01/09 07:36:17;;;;;;;20.30;15.25;;;;;;;-1.29;100.00;98753.34;1224384;75;2917715;-67
2024/01/09 07:38:53;;;;;;;17.60;13.05;;;;;;;-1.16;100.00;98754.63;1224122;75;2928826;-65
2024/01/09 07:41:26;;;;;;;15.90;12.35;;;;;;;-1.01;100.00;98757.44;1224098;75;2922968;-66
2024/01/09 07:43:58;;;;;;;16.35;11.90;;;;;;;-1.03;100.00;98767.78;1222855;75;2930399;-64
2024/01/09 07:46:31;;;;;;;15.30;12.05;;;;;;;-1.11;100.00;98773.13;1222295;75;2931506;-65
2024/01/09 07:49:04;;;;;;;15.40;12.20;;;;;;;-1.01;100.00;98777.03;1224116;75;2930315;-65
2024/01/09 07:51:37;;;;;;;17.00;12.90;;;;;;;-1.00;100.00;98785.88;1223535;75;2924294;-65
2024/01/09 07:54:12;;;;;;;15.65;12.45;;;;;;;-0.97;100.00;98780.50;1223920;75;2921523;-64
2024/01/09 07:56:46;;;;;;;17.80;13.20;;;;;;;-0.97;100.00;98782.44;1224031;75;2923941;-67
2024/01/09 07:59:19;;;;;;;16.65;12.50;;;;;;;-1.04;100.00;98777.75;1224077;75;2924626;-67
2024/01/09 08:01:56;;;;;;;20.50;14.65;;;;;;;-1.21;100.00;98779.13;1223164;75;2942834;-66
2024/01/09 08:04:29;;;;;;;22.45;16.60;;;;;;;-1.20;100.00;98783.38;1224410;75;2920641;-66
2024/01/09 08:07:03;;;;;;;20.70;16.05;;;;;;;-1.13;100.00;98790.72;1222617;75;2926782;-67
2024/01/09 08:09:38;;;;;;;19.10;14.50;;;;;;;-1.08;100.00;98791.19;1224215;75;2921291;-66
2024/01/09 08:12:11;;;;;;;23.85;17.80;;;;;;;-1.24;100.00;98796.00;1223942;75;2940225;-64
2024/01/09 08:14:44;;;;;;;22.40;16.10;;;;;;;-1.09;100.00;98789.63;1223025;75;2944023;-65
2024/01/09 08:17:19;;;;;;;23.30;16.90;;;;;;;-1.17;100.00;98804.13;1223755;75;2922701;-65
2024/01/09 08:19:52;;;;;;;20.80;16.15;;;;;;;-1.18;100.00;98804.50;1223112;75;2922731;-65
2024/01/09 08:22:25;;;;;;;20.25;15.55;;;;;;;-1.16;100.00;98804.91;1223351;75;2921010;-65
2024/01/09 08:25:00;;;;;;;19.90;15.30;;;;;;;-1.25;100.00;98807.09;1221718;75;2936343;-66
2024/01/09 08:27:33;;;;;;;18.95;14.30;;;;;;;-1.04;100.00;98814.63;1222391;75;2923853;-64
2024/01/09 08:30:08;;;;;;;20.85;16.15;;;;;;;-1.19;100.00;98813.72;1224051;75;2940760;-67
2024/01/09 08:32:42;;;;;;;19.80;14.35;;;;;;;-1.02;100.00;98820.41;1223706;75;2929469;-66
2024/01/09 08:35:14;;;;;;;18.90;14.40;;;;;;;-0.94;100.00;98820.13;1222204;75;2960758;-64
2024/01/09 08:37:47;;;;;;;16.80;12.95;;;;;;;-0.77;95.64;98820.63;1223473;75;2927893;-68
2024/01/09 08:40:23;;;;;;;17.70;12.40;;;;;;;-1.00;91.99;98820.81;1223750;75;2928424;-67
2024/01/09 08:42:56;;;;;;;15.45;11.80;;;;;;;-0.80;83.11;98826.75;1224588;75;2925265;-67
2024/01/09 08:45:29;;;;;;;11.95;9.00;;;;;;;-0.61;76.71;98828.44;1222013;75;2936103;-64
2024/01/09 08:48:02;;;;;;;10.50;8.35;;;;;;;-0.59;73.65;98831.56;1222976;75;2932338;-66
2024/01/09 08:50:35;;;;;;;10.90;8.10;;;;;;;-0.60;69.67;98830.78;1223750;75;2922548;-64
2024/01/09 08:53:08;;;;;;;8.70;6.30;;;;;;;-0.59;68.59;98839.63;1224597;75;2921041;-66
2024/01/09 08:55:44;;;;;;;8.45;6.35;;;;;;;-0.66;67.10;98838.41;1222773;83;2924293;-64
2024/01/09 08:58:16;;;;;;;10.50;7.25;;;;;;;-0.73;67.54;98846.41;1223673;75;2932238;-64
2024/01/09 09:00:49;;;;;;;10.80;6.55;;;;;;;-0.65;66.37;98852.59;1224551;75;2922370;-65
2024/01/09 09:03:22;;;;;;;10.45;6.90;;;;;;;-0.62;66.62;98854.56;1222706;75;2963150;-67
2024/01/09 09:05:55;;;;;;;8.15;6.45;;;;;;;-0.49;67.66;98853.13;1225217;75;2931356;-66
2024/01/09 09:08:28;;;;;;;8.65;6.55;;;;;;;-0.48;66.97;98859.28;1223672;75;2927243;-65
2024/01/09 09:11:03;;;;;;;8.10;5.80;;;;;;;-0.46;66.46;98855.09;1224097;75;2922642;-66
2024/01/09 09:13:37;;;;;;;8.10;5.65;;;;;;;-0.47;66.01;98863.53;1223606;75;2928836;-66
2024/01/09 09:16:10;;;;;;;11.10;6.60;;;;;;;-0.51;66.02;98865.41;1187464;75;5835822;-67
2024/01/09 09:18:44;;;;;;;8.75;6.05;;;;;;;-0.46;67.66;98873.94;1223175;75;2927350;-65
2024/01/09 09:21:19;;;;;;;8.40;5.85;;;;;;;-0.49;65.98;98882.72;1224431;75;2931167;-66
2024/01/09 09:23:53;;;;;;;9.20;6.35;;;;;;;-0.53;64.79;98875.78;1223266;75;2922275;-65
2024/01/09 09:26:29;;;;;;;9.55;6.40;;;;;;;-0.53;64.54;98868.50;1140520;75;9179278;-65
2024/01/09 09:29:02;;;;;;;11.35;7.15;;;;;;;-0.45;65.68;98869.31;1223462;75;2928780;-66
2024/01/09 09:31:57;;;;;;;10.05;6.90;;;;;;;-0.47;65.48;98872.38;1224099;75;2921551;-66
2024/01/09 09:34:29;;;;;;;9.25;6.35;;;;;;;-0.41;64.64;98869.34;1223511;75;2927998;-67
2024/01/09 09:37:02;;;;;;;8.40;5.80;;;;;;;-0.48;64.83;98876.22;1222240;75;2941476;-67
2024/01/09 09:39:35;;;;;;;8.70;6.20;;;;;;;-0.45;65.74;98867.41;1224840;75;2918402;-67
2024/01/09 09:42:12;;;;;;;9.60;6.20;;;;;;;-0.25;65.17;98878.69;1208457;75;4127625;-64
2024/01/09 09:44:46;;;;;;;;;;;;;;;-0.29;65.89;98877.13;959184;75;10387919;-67
2024/01/09 09:47:21;;;;;;;12.45;7.70;;;;;;;-0.52;64.57;98875.41;1177552;75;5417232;-66
2024/01/09 09:49:55;;;;;;;14.20;7.60;;;;;;;-0.27;63.80;98880.22;1217212;75;3047959;-64
2024/01/09 09:52:31;;;;;;;10.05;7.30;;;;;;;-0.27;64.09;98880.22;1224271;75;2921746;-68
2024/01/09 09:55:04;;;;;;;10.50;6.10;;;;;;;-0.16;65.08;98877.63;1224020;75;2921155;-65
2024/01/09 09:57:39;;;;;;;9.35;7.10;;;;;;;-0.24;62.79;98882.16;1224354;75;2921666;-66
2024/01/09 10:00:13;;;;;;;11.35;7.25;;;;;;;-0.23;61.72;98881.78;1224054;75;2929441;-66
2024/01/09 10:02:51;;;;;;;9.45;6.95;;;;;;;-0.51;59.53;98879.63;1224915;75;2910938;-65
2024/01/09 10:05:26;;;;;;;12.90;9.40;;;;;;;-0.56;59.88;98879.22;1222700;75;2936283;-66
2024/01/09 10:08:00;;;;;;;11.45;7.85;;;;;;;-0.39;62.36;98885.88;1224848;75;2919630;-65
2024/01/09 10:10:33;;;;;;;10.90;7.30;;;;;;;-0.16;60.85;98894.53;1223707;75;2926482;-65
2024/01/09 10:13:08;;;;;;;8.50;5.80;;;;;;;-0.03;59.63;98890.38;1223934;75;2915105;-65
2024/01/09 10:16:02;;;;;;;11.00;7.75;;;;;;;-0.62;56.66;98892.22;1223570;75;2922287;-66
2024/01/09 10:18:36;;;;;;;11.75;7.75;;;;;;;-0.25;57.97;98886.78;1223692;75;2917484;-66
2024/01/09 10:21:09;;;;;;;12.65;7.30;;;;;;;-0.27;57.68;98891.75;1223826;75;2918167;-65
2024/01/09 10:23:43;;;;;;;11.05;7.30;;;;;;;-0.41;57.49;98885.47;1216203;75;3349393;-65
2024/01/09 10:26:19;;;;;;;12.30;7.85;;;;;;;-0.21;57.66;98884.13;1223693;75;2932009;-66
2024/01/09 10:28:55;;;;;;;9.95;7.20;;;;;;;-0.23;55.48;98883.72;1224054;75;2921330;-65
2024/01/09 10:31:29;;;;;;;10.30;6.95;;;;;;;-0.21;56.95;98886.81;1223453;75;2915520;-66
2024/01/09 10:34:03;;;;;;;9.80;6.00;;;;;;;-0.13;55.83;98880.31;1223673;75;2939905;-66
2024/01/09 10:36:36;;;;;;;8.30;5.70;;;;;;;-0.05;55.59;98886.53;1224299;75;2920957;-65
2024/01/09 10:39:10;;;;;;;8.50;5.30;;;;;;;-0.11;56.74;98878.03;1224222;75;2918647;-65
2024/01/09 10:41:44;;;;;;;9.60;6.05;;;;;;;-0.03;57.36;98879.63;1223739;75;2925335;-65
2024/01/09 10:44:22;;;;;;;12.55;6.95;;;;;;;-0.38;54.17;98882.84;1223612;75;2926683;-65
2024/01/09 10:46:55;;;;;;;12.60;6.90;;;;;;;-0.14;56.09;98878.78;1224085;75;2921516;-66
2024/01/09 10:49:29;;;;;;;10.45;6.50;;;;;;;-0.14;54.87;98872.66;1223346;75;2920443;-64
2024/01/09 10:52:03;;;;;;;9.05;6.10;;;;;;;-0.06;55.54;98877.69;1221845;75;2922674;-66
2024/01/09 10:54:37;;;;;;;9.10;5.65;;;;;;;0.06;57.76;98882.00;1221446;75;2953025;-65
2024/01/09 10:57:13;;;;;;;10.00;6.10;;;;;;;0.17;56.96;98879.38;1223929;75;2923123;-66
2024/01/09 10:59:50;;;;;;;8.45;5.30;;;;;;;0.09;57.33;98885.84;1224221;75;2918772;-67
2024/01/09 11:02:25;;;;;;;10.90;5.70;;;;;;;0.11;54.77;98878.19;1224410;75;2893119;-64
2024/01/09 11:04:58;;;;;;;7.40;4.65;;;;;;;0.13;54.65;98882.03;1222865;75;3090185;-65
2024/01/09 11:07:32;;;;;;;9.60;5.75;;;;;;;-0.12;54.26;98881.09;1223761;75;2920312;-66
2024/01/09 11:10:06;;;;;;;7.55;5.75;;;;;;;0.14;53.67;98872.81;1225399;75;2921631;-65
2024/01/09 11:12:44;;;;;;;8.10;5.10;;;;;;;0.20;55.29;98878.63;1225592;75;2898149;-65
2024/01/09 11:15:27;;;;;;;10.45;6.20;;;;;;;0.14;53.56;98880.13;1222581;75;2922656;-64
2024/01/09 11:18:07;;;;;;;12.60;7.80;;;;;;;-0.18;52.85;98883.38;1222488;75;2960567;-65
2024/01/09 11:20:40;;;;;;;10.00;6.30;;;;;;;-0.10;52.36;98892.25;1223521;75;2925263;-65
2024/01/09 11:23:14;;;;;;;11.30;7.55;;;;;;;-0.20;52.16;98879.50;1223484;75;2921000;-65
2024/01/09 11:25:57;;;;;;;33.15;20.55;;;;;;;-0.07;52.36;98883.47;1223621;75;2926054;-66
2024/01/09 11:28:45;;;;;;;20.20;13.80;;;;;;;0.12;53.89;98877.81;1222816;75;2923203;-66
2024/01/09 11:31:23;;;;;;;16.90;9.30;;;;;;;-0.38;53.38;98882.84;1223725;75;2941364;-64